Terminal Aerodrome Forecast
Issued by NWS

Home | Current Version | Previous Version | Text Only | Print | Product List | Glossary On
Versions: 1 2 3 4 5 6 7 8 9 10 11 12 13 14 15 16 17 18 19 20
000
FTUS46 KPQR 270837 AAA
TAFONP
TAF AMD
KONP 270837Z 2709/2806 00000KT 5SM BR OVC022
     FM271500 32004KT P6SM BKN009 OVC020
     FM271800 33010KT P6SM OVC012
     FM272100 33010G16KT P6SM OVC012
     FM280200 34010G16KT 4SM BR OVC003=

USA.gov is the U.S. government's official web portal to all federal, state and local government web resources and services.